sensor_id;sensor_type;location;lat;lon;timestamp;P1;durP1;ratioP1;P2;durP2;ratioP2
3700;SDS011;1866;48.374;10.766;2023-02-28T00:01:45;94.10;;;7.50;;
3700;SDS011;1866;48.374;10.766;2023-02-28T00:04:12;93.90;;;6.50;;
3700;SDS011;1866;48.374;10.766;2023-02-28T00:06:39;95.97;;;6.88;;
3700;SDS011;1866;48.374;10.766;2023-02-28T00:09:06;93.88;;;6.90;;
3700;SDS011;1866;48.374;10.766;2023-02-28T00:11:33;94.15;;;7.50;;
3700;SDS011;1866;48.374;10.766;2023-02-28T00:14:02;92.90;;;6.70;;
3700;SDS011;1866;48.374;10.766;2023-02-28T00:16:31;94.88;;;7.32;;
3700;SDS011;1866;48.374;10.766;2023-02-28T00:18:57;92.63;;;7.15;;
3700;SDS011;1866;48.374;10.766;2023-02-28T00:21:24;92.32;;;6.63;;
3700;SDS011;1866;48.374;10.766;2023-02-28T00:23:51;92.60;;;6.30;;
3700;SDS011;1866;48.374;10.766;2023-02-28T00:26:18;93.07;;;7.18;;
3700;SDS011;1866;48.374;10.766;2023-02-28T00:28:45;92.65;;;6.55;;
3700;SDS011;1866;48.374;10.766;2023-02-28T00:31:11;95.13;;;7.43;;
3700;SDS011;1866;48.374;10.766;2023-02-28T00:33:40;94.03;;;7.10;;
3700;SDS011;1866;48.374;10.766;2023-02-28T00:36:07;91.97;;;6.60;;
3700;SDS011;1866;48.374;10.766;2023-02-28T00:38:36;96.13;;;7.05;;
3700;SDS011;1866;48.374;10.766;2023-02-28T00:41:03;93.85;;;7.50;;
3700;SDS011;1866;48.374;10.766;2023-02-28T00:43:31;98.10;;;7.40;;
3700;SDS011;1866;48.374;10.766;2023-02-28T00:45:58;92.03;;;6.90;;
3700;SDS011;1866;48.374;10.766;2023-02-28T00:48:25;93.90;;;6.80;;
3700;SDS011;1866;48.374;10.766;2023-02-28T00:50:53;93.60;;;7.50;;
3700;SDS011;1866;48.374;10.766;2023-02-28T00:53:20;92.72;;;6.70;;
3700;SDS011;1866;48.374;10.766;2023-02-28T00:55:48;91.45;;;6.68;;
3700;SDS011;1866;48.374;10.766;2023-02-28T00:58:15;92.93;;;7.00;;
3700;SDS011;1866;48.374;10.766;2023-02-28T01:00:42;92.40;;;7.15;;
3700;SDS011;1866;48.374;10.766;2023-02-28T01:03:12;91.85;;;6.60;;
3700;SDS011;1866;48.374;10.766;2023-02-28T01:05:39;93.43;;;7.50;;
3700;SDS011;1866;48.374;10.766;2023-02-28T01:08:08;92.65;;;6.70;;
3700;SDS011;1866;48.374;10.766;2023-02-28T01:10:35;93.18;;;7.30;;
3700;SDS011;1866;48.374;10.766;2023-02-28T01:13:03;92.40;;;7.13;;
3700;SDS011;1866;48.374;10.766;2023-02-28T01:15:30;93.47;;;7.35;;
3700;SDS011;1866;48.374;10.766;2023-02-28T01:17:57;92.93;;;6.93;;
3700;SDS011;1866;48.374;10.766;2023-02-28T01:20:24;92.43;;;7.00;;
3700;SDS011;1866;48.374;10.766;2023-02-28T01:22:51;94.07;;;7.05;;
3700;SDS011;1866;48.374;10.766;2023-02-28T01:25:19;94.88;;;6.28;;
3700;SDS011;1866;48.374;10.766;2023-02-28T01:27:46;97.60;;;7.15;;
3700;SDS011;1866;48.374;10.766;2023-02-28T01:30:13;93.15;;;7.40;;
3700;SDS011;1866;48.374;10.766;2023-02-28T01:32:40;92.28;;;6.75;;
3700;SDS011;1866;48.374;10.766;2023-02-28T01:35:07;96.05;;;7.25;;
3700;SDS011;1866;48.374;10.766;2023-02-28T01:37:34;92.55;;;6.97;;
3700;SDS011;1866;48.374;10.766;2023-02-28T01:40:01;92.00;;;6.47;;
3700;SDS011;1866;48.374;10.766;2023-02-28T01:42:30;95.82;;;7.40;;
3700;SDS011;1866;48.374;10.766;2023-02-28T01:44:58;98.43;;;7.30;;
3700;SDS011;1866;48.374;10.766;2023-02-28T01:47:29;91.97;;;7.20;;
3700;SDS011;1866;48.374;10.766;2023-02-28T01:49:59;94.30;;;7.20;;
3700;SDS011;1866;48.374;10.766;2023-02-28T01:52:30;93.60;;;7.28;;
3700;SDS011;1866;48.374;10.766;2023-02-28T01:54:59;92.13;;;6.78;;
3700;SDS011;1866;48.374;10.766;2023-02-28T01:57:29;93.30;;;6.75;;
3700;SDS011;1866;48.374;10.766;2023-02-28T02:00:04;94.97;;;7.10;;
3700;SDS011;1866;48.374;10.766;2023-02-28T02:02:34;93.30;;;6.95;;
3700;SDS011;1866;48.374;10.766;2023-02-28T02:05:03;92.85;;;7.07;;
3700;SDS011;1866;48.374;10.766;2023-02-28T02:07:33;96.18;;;7.22;;
3700;SDS011;1866;48.374;10.766;2023-02-28T02:10:04;92.57;;;6.85;;
3700;SDS011;1866;48.374;10.766;2023-02-28T02:12:41;93.22;;;7.55;;
3700;SDS011;1866;48.374;10.766;2023-02-28T02:15:19;93.00;;;6.65;;
3700;SDS011;1866;48.374;10.766;2023-02-28T02:17:51;92.50;;;6.72;;
3700;SDS011;1866;48.374;10.766;2023-02-28T02:20:32;92.63;;;7.30;;
3700;SDS011;1866;48.374;10.766;2023-02-28T02:29:44;91.78;;;6.63;;
3700;SDS011;1866;48.374;10.766;2023-02-28T02:32:40;92.68;;;7.07;;
3700;SDS011;1866;48.374;10.766;2023-02-28T02:35:36;95.05;;;7.57;;
3700;SDS011;1866;48.374;10.766;2023-02-28T02:38:09;93.13;;;7.30;;
3700;SDS011;1866;48.374;10.766;2023-02-28T02:40:42;92.72;;;7.05;;
3700;SDS011;1866;48.374;10.766;2023-02-28T02:43:13;93.05;;;7.30;;
3700;SDS011;1866;48.374;10.766;2023-02-28T02:45:44;91.72;;;7.13;;
3700;SDS011;1866;48.374;10.766;2023-02-28T02:48:16;92.25;;;6.85;;
3700;SDS011;1866;48.374;10.766;2023-02-28T02:50:48;92.38;;;7.32;;
3700;SDS011;1866;48.374;10.766;2023-02-28T02:53:18;92.05;;;7.13;;
3700;SDS011;1866;48.374;10.766;2023-02-28T02:55:50;98.05;;;7.40;;
3700;SDS011;1866;48.374;10.766;2023-02-28T02:58:20;94.78;;;7.45;;
3700;SDS011;1866;48.374;10.766;2023-02-28T03:00:51;91.43;;;6.95;;
3700;SDS011;1866;48.374;10.766;2023-02-28T03:03:20;94.13;;;7.47;;
3700;SDS011;1866;48.374;10.766;2023-02-28T03:05:55;92.85;;;7.15;;
3700;SDS011;1866;48.374;10.766;2023-02-28T03:08:22;93.78;;;7.82;;
3700;SDS011;1866;48.374;10.766;2023-02-28T03:10:50;93.78;;;7.60;;
3700;SDS011;1866;48.374;10.766;2023-02-28T03:13:30;92.45;;;7.20;;
3700;SDS011;1866;48.374;10.766;2023-02-28T03:16:31;93.13;;;7.72;;
3700;SDS011;1866;48.374;10.766;2023-02-28T03:22:18;94.55;;;7.53;;
3700;SDS011;1866;48.374;10.766;2023-02-28T03:25:05;93.65;;;7.43;;
3700;SDS011;1866;48.374;10.766;2023-02-28T03:27:36;92.28;;;7.13;;
3700;SDS011;1866;48.374;10.766;2023-02-28T03:30:09;92.13;;;7.03;;
3700;SDS011;1866;48.374;10.766;2023-02-28T03:32:40;94.13;;;7.72;;
3700;SDS011;1866;48.374;10.766;2023-02-28T03:35:15;92.00;;;7.18;;
3700;SDS011;1866;48.374;10.766;2023-02-28T03:37:49;96.95;;;7.53;;
3700;SDS011;1866;48.374;10.766;2023-02-28T03:40:19;93.47;;;7.10;;
3700;SDS011;1866;48.374;10.766;2023-02-28T03:42:52;93.43;;;7.35;;
3700;SDS011;1866;48.374;10.766;2023-02-28T03:45:24;93.72;;;7.75;;
3700;SDS011;1866;48.374;10.766;2023-02-28T03:47:54;93.40;;;7.60;;
3700;SDS011;1866;48.374;10.766;2023-02-28T03:50:25;93.30;;;7.10;;
3700;SDS011;1866;48.374;10.766;2023-02-28T03:53:05;93.50;;;7.10;;
3700;SDS011;1866;48.374;10.766;2023-02-28T03:55:37;101.80;;;7.63;;
3700;SDS011;1866;48.374;10.766;2023-02-28T03:58:09;93.20;;;7.20;;
3700;SDS011;1866;48.374;10.766;2023-02-28T04:00:43;92.88;;;7.20;;
3700;SDS011;1866;48.374;10.766;2023-02-28T04:03:13;91.88;;;7.35;;
3700;SDS011;1866;48.374;10.766;2023-02-28T04:05:45;94.60;;;7.60;;
3700;SDS011;1866;48.374;10.766;2023-02-28T04:08:17;98.25;;;8.18;;
3700;SDS011;1866;48.374;10.766;2023-02-28T04:10:45;94.32;;;7.65;;
3700;SDS011;1866;48.374;10.766;2023-02-28T04:13:16;94.07;;;7.50;;
3700;SDS011;1866;48.374;10.766;2023-02-28T04:15:43;93.75;;;6.93;;
3700;SDS011;1866;48.374;10.766;2023-02-28T04:18:10;92.82;;;7.05;;
3700;SDS011;1866;48.374;10.766;2023-02-28T04:20:36;94.88;;;7.57;;
3700;SDS011;1866;48.374;10.766;2023-02-28T04:23:03;97.97;;;8.10;;
3700;SDS011;1866;48.374;10.766;2023-02-28T04:25:31;93.20;;;7.47;;
3700;SDS011;1866;48.374;10.766;2023-02-28T04:27:58;93.90;;;7.25;;
3700;SDS011;1866;48.374;10.766;2023-02-28T04:30:25;94.68;;;7.28;;
3700;SDS011;1866;48.374;10.766;2023-02-28T04:32:52;94.38;;;7.60;;
3700;SDS011;1866;48.374;10.766;2023-02-28T04:35:19;93.70;;;7.45;;
3700;SDS011;1866;48.374;10.766;2023-02-28T04:37:45;92.47;;;7.50;;
3700;SDS011;1866;48.374;10.766;2023-02-28T04:40:12;92.50;;;7.45;;
3700;SDS011;1866;48.374;10.766;2023-02-28T04:42:40;92.40;;;7.13;;
3700;SDS011;1866;48.374;10.766;2023-02-28T04:45:08;93.38;;;7.53;;
3700;SDS011;1866;48.374;10.766;2023-02-28T04:47:36;93.53;;;7.80;;
3700;SDS011;1866;48.374;10.766;2023-02-28T04:50:03;93.63;;;7.65;;
3700;SDS011;1866;48.374;10.766;2023-02-28T04:52:30;95.70;;;8.13;;
3700;SDS011;1866;48.374;10.766;2023-02-28T04:54:57;95.65;;;7.47;;
3700;SDS011;1866;48.374;10.766;2023-02-28T04:57:23;93.10;;;7.38;;
3700;SDS011;1866;48.374;10.766;2023-02-28T04:59:52;93.22;;;7.32;;
3700;SDS011;1866;48.374;10.766;2023-02-28T05:02:19;92.88;;;8.20;;
3700;SDS011;1866;48.374;10.766;2023-02-28T05:04:46;106.32;;;7.68;;
3700;SDS011;1866;48.374;10.766;2023-02-28T05:07:13;93.22;;;8.10;;
3700;SDS011;1866;48.374;10.766;2023-02-28T05:09:39;93.65;;;7.85;;
3700;SDS011;1866;48.374;10.766;2023-02-28T05:12:07;93.95;;;7.65;;
3700;SDS011;1866;48.374;10.766;2023-02-28T05:14:35;96.13;;;8.15;;
3700;SDS011;1866;48.374;10.766;2023-02-28T05:17:03;93.00;;;7.25;;
3700;SDS011;1866;48.374;10.766;2023-02-28T05:19:30;93.20;;;7.47;;
3700;SDS011;1866;48.374;10.766;2023-02-28T05:21:57;92.90;;;7.68;;
3700;SDS011;1866;48.374;10.766;2023-02-28T05:24:24;92.60;;;7.55;;
3700;SDS011;1866;48.374;10.766;2023-02-28T05:26:51;91.88;;;7.57;;
3700;SDS011;1866;48.374;10.766;2023-02-28T05:29:19;92.82;;;7.78;;
3700;SDS011;1866;48.374;10.766;2023-02-28T05:31:46;92.10;;;7.20;;
3700;SDS011;1866;48.374;10.766;2023-02-28T05:34:15;94.47;;;8.40;;
3700;SDS011;1866;48.374;10.766;2023-02-28T05:36:41;93.70;;;7.63;;
3700;SDS011;1866;48.374;10.766;2023-02-28T05:39:08;92.82;;;7.63;;
3700;SDS011;1866;48.374;10.766;2023-02-28T05:41:38;92.93;;;7.40;;
3700;SDS011;1866;48.374;10.766;2023-02-28T05:44:06;93.97;;;7.93;;
3700;SDS011;1866;48.374;10.766;2023-02-28T05:46:33;95.00;;;9.05;;
3700;SDS011;1866;48.374;10.766;2023-02-28T05:49:00;94.15;;;7.75;;
3700;SDS011;1866;48.374;10.766;2023-02-28T05:51:28;92.57;;;8.20;;
3700;SDS011;1866;48.374;10.766;2023-02-28T05:53:58;93.18;;;7.85;;
3700;SDS011;1866;48.374;10.766;2023-02-28T05:56:26;95.88;;;8.18;;
3700;SDS011;1866;48.374;10.766;2023-02-28T05:58:52;97.07;;;8.95;;
3700;SDS011;1866;48.374;10.766;2023-02-28T06:01:20;96.13;;;7.93;;
3700;SDS011;1866;48.374;10.766;2023-02-28T06:03:49;96.40;;;8.55;;
3700;SDS011;1866;48.374;10.766;2023-02-28T06:06:16;94.45;;;8.18;;
3700;SDS011;1866;48.374;10.766;2023-02-28T06:08:45;93.47;;;7.50;;
3700;SDS011;1866;48.374;10.766;2023-02-28T06:11:11;94.20;;;7.90;;
3700;SDS011;1866;48.374;10.766;2023-02-28T06:13:38;95.88;;;8.20;;
3700;SDS011;1866;48.374;10.766;2023-02-28T06:16:06;94.47;;;8.57;;
3700;SDS011;1866;48.374;10.766;2023-02-28T06:18:34;93.60;;;7.80;;
3700;SDS011;1866;48.374;10.766;2023-02-28T06:21:01;93.97;;;8.32;;
3700;SDS011;1866;48.374;10.766;2023-02-28T06:23:28;98.70;;;9.18;;
3700;SDS011;1866;48.374;10.766;2023-02-28T06:25:56;94.43;;;8.15;;
3700;SDS011;1866;48.374;10.766;2023-02-28T06:28:23;92.85;;;7.95;;
3700;SDS011;1866;48.374;10.766;2023-02-28T06:30:51;94.82;;;7.57;;
3700;SDS011;1866;48.374;10.766;2023-02-28T06:33:18;95.03;;;8.00;;
3700;SDS011;1866;48.374;10.766;2023-02-28T06:35:46;95.88;;;8.07;;
3700;SDS011;1866;48.374;10.766;2023-02-28T06:38:13;94.53;;;8.07;;
3700;SDS011;1866;48.374;10.766;2023-02-28T06:40:40;95.40;;;8.07;;
3700;SDS011;1866;48.374;10.766;2023-02-28T06:43:08;91.85;;;7.22;;
3700;SDS011;1866;48.374;10.766;2023-02-28T06:45:40;95.20;;;7.80;;
3700;SDS011;1866;48.374;10.766;2023-02-28T06:48:08;95.85;;;8.25;;
3700;SDS011;1866;48.374;10.766;2023-02-28T06:50:35;93.68;;;7.65;;
3700;SDS011;1866;48.374;10.766;2023-02-28T06:53:02;93.45;;;8.30;;
3700;SDS011;1866;48.374;10.766;2023-02-28T06:55:29;94.15;;;8.48;;
3700;SDS011;1866;48.374;10.766;2023-02-28T06:57:56;95.35;;;8.80;;
3700;SDS011;1866;48.374;10.766;2023-02-28T07:00:25;95.40;;;8.30;;
3700;SDS011;1866;48.374;10.766;2023-02-28T07:02:52;101.85;;;8.68;;
3700;SDS011;1866;48.374;10.766;2023-02-28T07:05:20;95.47;;;8.50;;
3700;SDS011;1866;48.374;10.766;2023-02-28T07:07:46;95.22;;;8.15;;
3700;SDS011;1866;48.374;10.766;2023-02-28T07:10:13;95.53;;;8.07;;
3700;SDS011;1866;48.374;10.766;2023-02-28T07:12:42;94.00;;;8.15;;
3700;SDS011;1866;48.374;10.766;2023-02-28T07:15:09;93.43;;;8.10;;
3700;SDS011;1866;48.374;10.766;2023-02-28T07:17:38;98.10;;;9.00;;
3700;SDS011;1866;48.374;10.766;2023-02-28T07:20:05;97.68;;;8.02;;
3700;SDS011;1866;48.374;10.766;2023-02-28T07:22:33;95.30;;;8.60;;
3700;SDS011;1866;48.374;10.766;2023-02-28T07:25:00;96.25;;;8.77;;
3700;SDS011;1866;48.374;10.766;2023-02-28T07:27:26;93.30;;;8.10;;
3700;SDS011;1866;48.374;10.766;2023-02-28T07:29:53;98.25;;;8.43;;
3700;SDS011;1866;48.374;10.766;2023-02-28T07:32:20;95.18;;;8.50;;
3700;SDS011;1866;48.374;10.766;2023-02-28T07:34:49;106.88;;;8.73;;
3700;SDS011;1866;48.374;10.766;2023-02-28T07:37:16;97.10;;;8.18;;
3700;SDS011;1866;48.374;10.766;2023-02-28T07:39:43;94.90;;;8.57;;
3700;SDS011;1866;48.374;10.766;2023-02-28T07:42:09;95.75;;;8.93;;
3700;SDS011;1866;48.374;10.766;2023-02-28T07:44:37;93.93;;;7.63;;
3700;SDS011;1866;48.374;10.766;2023-02-28T07:47:05;95.85;;;8.98;;
3700;SDS011;1866;48.374;10.766;2023-02-28T07:49:33;95.60;;;8.60;;
3700;SDS011;1866;48.374;10.766;2023-02-28T07:52:02;95.78;;;7.50;;
3700;SDS011;1866;48.374;10.766;2023-02-28T07:54:29;94.03;;;8.05;;
3700;SDS011;1866;48.374;10.766;2023-02-28T07:56:56;96.45;;;8.63;;
3700;SDS011;1866;48.374;10.766;2023-02-28T07:59:22;96.80;;;8.13;;
3700;SDS011;1866;48.374;10.766;2023-02-28T08:01:49;96.53;;;8.35;;
3700;SDS011;1866;48.374;10.766;2023-02-28T08:04:17;92.63;;;7.82;;
3700;SDS011;1866;48.374;10.766;2023-02-28T08:06:44;99.78;;;8.15;;
3700;SDS011;1866;48.374;10.766;2023-02-28T08:09:13;94.78;;;8.35;;
3700;SDS011;1866;48.374;10.766;2023-02-28T08:11:40;94.22;;;8.20;;
3700;SDS011;1866;48.374;10.766;2023-02-28T08:14:07;98.15;;;9.77;;
3700;SDS011;1866;48.374;10.766;2023-02-28T08:16:34;97.53;;;9.35;;
3700;SDS011;1866;48.374;10.766;2023-02-28T08:19:01;95.22;;;8.57;;
3700;SDS011;1866;48.374;10.766;2023-02-28T08:21:28;99.28;;;9.88;;
3700;SDS011;1866;48.374;10.766;2023-02-28T08:23:54;96.45;;;8.07;;
3700;SDS011;1866;48.374;10.766;2023-02-28T08:26:23;98.78;;;9.82;;
3700;SDS011;1866;48.374;10.766;2023-02-28T08:28:50;95.43;;;8.85;;
3700;SDS011;1866;48.374;10.766;2023-02-28T08:31:17;104.53;;;8.90;;
3700;SDS011;1866;48.374;10.766;2023-02-28T08:33:44;97.93;;;9.05;;
3700;SDS011;1866;48.374;10.766;2023-02-28T08:36:13;98.72;;;9.50;;
3700;SDS011;1866;48.374;10.766;2023-02-28T08:38:41;96.95;;;8.80;;
3700;SDS011;1866;48.374;10.766;2023-02-28T08:41:10;104.75;;;9.98;;
3700;SDS011;1866;48.374;10.766;2023-02-28T08:43:39;100.43;;;8.77;;
3700;SDS011;1866;48.374;10.766;2023-02-28T08:46:07;94.97;;;8.77;;
3700;SDS011;1866;48.374;10.766;2023-02-28T08:48:36;99.40;;;9.43;;
3700;SDS011;1866;48.374;10.766;2023-02-28T08:51:04;98.90;;;9.25;;
3700;SDS011;1866;48.374;10.766;2023-02-28T08:53:34;95.90;;;8.80;;
3700;SDS011;1866;48.374;10.766;2023-02-28T08:56:01;97.30;;;8.35;;
3700;SDS011;1866;48.374;10.766;2023-02-28T08:58:30;97.47;;;8.38;;
3700;SDS011;1866;48.374;10.766;2023-02-28T09:00:58;97.05;;;8.70;;
3700;SDS011;1866;48.374;10.766;2023-02-28T09:03:25;102.20;;;9.10;;
3700;SDS011;1866;48.374;10.766;2023-02-28T09:05:53;96.63;;;9.05;;
3700;SDS011;1866;48.374;10.766;2023-02-28T09:08:21;101.57;;;9.52;;
3700;SDS011;1866;48.374;10.766;2023-02-28T09:10:48;95.03;;;8.48;;
3700;SDS011;1866;48.374;10.766;2023-02-28T09:13:15;97.72;;;9.05;;
3700;SDS011;1866;48.374;10.766;2023-02-28T09:15:43;99.55;;;9.02;;
3700;SDS011;1866;48.374;10.766;2023-02-28T09:18:11;98.63;;;9.05;;
3700;SDS011;1866;48.374;10.766;2023-02-28T09:20:38;97.88;;;8.63;;
3700;SDS011;1866;48.374;10.766;2023-02-28T09:23:06;95.78;;;8.32;;
3700;SDS011;1866;48.374;10.766;2023-02-28T09:25:33;99.70;;;10.00;;
3700;SDS011;1866;48.374;10.766;2023-02-28T09:28:00;97.25;;;8.98;;
3700;SDS011;1866;48.374;10.766;2023-02-28T09:30:28;98.30;;;9.02;;
3700;SDS011;1866;48.374;10.766;2023-02-28T09:32:55;97.43;;;8.68;;
3700;SDS011;1866;48.374;10.766;2023-02-28T09:35:23;97.95;;;8.20;;
3700;SDS011;1866;48.374;10.766;2023-02-28T09:37:52;99.30;;;8.80;;
3700;SDS011;1866;48.374;10.766;2023-02-28T09:40:20;97.35;;;8.70;;
3700;SDS011;1866;48.374;10.766;2023-02-28T09:42:50;97.90;;;9.38;;
3700;SDS011;1866;48.374;10.766;2023-02-28T09:45:22;98.10;;;8.55;;
3700;SDS011;1866;48.374;10.766;2023-02-28T09:47:53;100.20;;;9.65;;
3700;SDS011;1866;48.374;10.766;2023-02-28T09:50:30;100.43;;;8.85;;
3700;SDS011;1866;48.374;10.766;2023-02-28T09:53:02;99.20;;;9.30;;
3700;SDS011;1866;48.374;10.766;2023-02-28T09:55:37;98.32;;;9.07;;
3700;SDS011;1866;48.374;10.766;2023-02-28T09:58:09;99.88;;;8.90;;
3700;SDS011;1866;48.374;10.766;2023-02-28T10:00:46;99.45;;;8.60;;
3700;SDS011;1866;48.374;10.766;2023-02-28T10:03:25;101.20;;;9.57;;
3700;SDS011;1866;48.374;10.766;2023-02-28T10:05:59;100.18;;;8.27;;
3700;SDS011;1866;48.374;10.766;2023-02-28T10:08:34;98.68;;;8.63;;
3700;SDS011;1866;48.374;10.766;2023-02-28T10:11:06;103.63;;;9.25;;
3700;SDS011;1866;48.374;10.766;2023-02-28T10:13:37;102.80;;;9.60;;
3700;SDS011;1866;48.374;10.766;2023-02-28T10:16:14;100.88;;;9.45;;
3700;SDS011;1866;48.374;10.766;2023-02-28T10:18:46;102.63;;;9.10;;
3700;SDS011;1866;48.374;10.766;2023-02-28T10:21:19;101.97;;;9.68;;
3700;SDS011;1866;48.374;10.766;2023-02-28T10:23:50;104.15;;;10.30;;
3700;SDS011;1866;48.374;10.766;2023-02-28T10:26:25;104.15;;;8.95;;
3700;SDS011;1866;48.374;10.766;2023-02-28T10:28:54;100.25;;;8.90;;
3700;SDS011;1866;48.374;10.766;2023-02-28T10:31:21;100.78;;;9.13;;
3700;SDS011;1866;48.374;10.766;2023-02-28T10:33:48;100.28;;;9.27;;
3700;SDS011;1866;48.374;10.766;2023-02-28T10:36:16;99.93;;;9.32;;
3700;SDS011;1866;48.374;10.766;2023-02-28T10:38:46;100.93;;;9.32;;
3700;SDS011;1866;48.374;10.766;2023-02-28T10:41:13;96.93;;;8.48;;
3700;SDS011;1866;48.374;10.766;2023-02-28T10:43:42;101.30;;;9.05;;
3700;SDS011;1866;48.374;10.766;2023-02-28T10:46:11;101.78;;;9.40;;
3700;SDS011;1866;48.374;10.766;2023-02-28T10:48:57;99.60;;;9.18;;
3700;SDS011;1866;48.374;10.766;2023-02-28T10:51:33;101.60;;;8.70;;
3700;SDS011;1866;48.374;10.766;2023-02-28T10:54:04;102.55;;;9.52;;
3700;SDS011;1866;48.374;10.766;2023-02-28T10:56:31;101.82;;;8.80;;
3700;SDS011;1866;48.374;10.766;2023-02-28T10:58:59;103.22;;;8.93;;
3700;SDS011;1866;48.374;10.766;2023-02-28T11:01:34;98.90;;;8.85;;
3700;SDS011;1866;48.374;10.766;2023-02-28T11:04:12;102.15;;;8.93;;
3700;SDS011;1866;48.374;10.766;2023-02-28T11:06:44;100.75;;;8.88;;
3700;SDS011;1866;48.374;10.766;2023-02-28T11:09:18;104.72;;;9.48;;
3700;SDS011;1866;48.374;10.766;2023-02-28T11:11:48;101.55;;;9.40;;
3700;SDS011;1866;48.374;10.766;2023-02-28T11:14:18;101.45;;;9.70;;
3700;SDS011;1866;48.374;10.766;2023-02-28T11:16:47;102.72;;;9.43;;
3700;SDS011;1866;48.374;10.766;2023-02-28T11:19:17;100.55;;;9.25;;
3700;SDS011;1866;48.374;10.766;2023-02-28T11:21:49;103.20;;;10.10;;
3700;SDS011;1866;48.374;10.766;2023-02-28T11:24:21;100.07;;;8.60;;
3700;SDS011;1866;48.374;10.766;2023-02-28T11:26:52;99.80;;;8.63;;
3700;SDS011;1866;48.374;10.766;2023-02-28T11:29:20;101.55;;;9.50;;
3700;SDS011;1866;48.374;10.766;2023-02-28T11:32:00;100.78;;;8.93;;
3700;SDS011;1866;48.374;10.766;2023-02-28T11:34:41;100.88;;;8.85;;
3700;SDS011;1866;48.374;10.766;2023-02-28T11:37:11;101.35;;;8.45;;
3700;SDS011;1866;48.374;10.766;2023-02-28T11:39:40;105.65;;;9.43;;
3700;SDS011;1866;48.374;10.766;2023-02-28T11:42:11;102.88;;;9.25;;
3700;SDS011;1866;48.374;10.766;2023-02-28T11:44:54;100.90;;;8.77;;
3700;SDS011;1866;48.374;10.766;2023-02-28T11:47:34;103.00;;;9.82;;
3700;SDS011;1866;48.374;10.766;2023-02-28T11:50:16;101.57;;;9.43;;
3700;SDS011;1866;48.374;10.766;2023-02-28T11:52:53;101.28;;;9.40;;
3700;SDS011;1866;48.374;10.766;2023-02-28T11:55:25;103.05;;;9.82;;
3700;SDS011;1866;48.374;10.766;2023-02-28T11:58:00;98.88;;;8.73;;
3700;SDS011;1866;48.374;10.766;2023-02-28T12:00:45;105.60;;;9.55;;
3700;SDS011;1866;48.374;10.766;2023-02-28T12:03:43;102.93;;;9.00;;
3700;SDS011;1866;48.374;10.766;2023-02-28T12:06:17;99.10;;;8.30;;
3700;SDS011;1866;48.374;10.766;2023-02-28T12:08:54;103.60;;;9.77;;
3700;SDS011;1866;48.374;10.766;2023-02-28T12:11:47;100.47;;;8.93;;
3700;SDS011;1866;48.374;10.766;2023-02-28T12:14:25;105.57;;;9.02;;
3700;SDS011;1866;48.374;10.766;2023-02-28T12:17:13;102.43;;;9.45;;
3700;SDS011;1866;48.374;10.766;2023-02-28T12:19:55;102.80;;;9.30;;
3700;SDS011;1866;48.374;10.766;2023-02-28T12:22:28;110.40;;;10.93;;
3700;SDS011;1866;48.374;10.766;2023-02-28T12:25:02;102.10;;;9.30;;
3700;SDS011;1866;48.374;10.766;2023-02-28T12:27:59;101.43;;;9.23;;
3700;SDS011;1866;48.374;10.766;2023-02-28T12:30:27;104.68;;;9.10;;
3700;SDS011;1866;48.374;10.766;2023-02-28T12:32:58;103.88;;;9.77;;
3700;SDS011;1866;48.374;10.766;2023-02-28T12:35:32;102.43;;;8.65;;
3700;SDS011;1866;48.374;10.766;2023-02-28T12:38:04;104.30;;;9.88;;
3700;SDS011;1866;48.374;10.766;2023-02-28T12:40:40;102.77;;;9.80;;
3700;SDS011;1866;48.374;10.766;2023-02-28T12:43:12;105.25;;;9.75;;
3700;SDS011;1866;48.374;10.766;2023-02-28T12:45:41;101.00;;;9.38;;
3700;SDS011;1866;48.374;10.766;2023-02-28T12:48:14;102.60;;;9.07;;
3700;SDS011;1866;48.374;10.766;2023-02-28T12:50:44;103.28;;;10.10;;
3700;SDS011;1866;48.374;10.766;2023-02-28T12:53:14;101.20;;;9.07;;
3700;SDS011;1866;48.374;10.766;2023-02-28T12:55:48;103.30;;;9.25;;
3700;SDS011;1866;48.374;10.766;2023-02-28T12:58:23;101.47;;;8.88;;
3700;SDS011;1866;48.374;10.766;2023-02-28T13:01:03;104.10;;;8.95;;
3700;SDS011;1866;48.374;10.766;2023-02-28T13:04:01;103.17;;;8.67;;
3700;SDS011;1866;48.374;10.766;2023-02-28T13:06:49;107.13;;;8.70;;
3700;SDS011;1866;48.374;10.766;2023-02-28T13:09:30;108.90;;;9.27;;
3700;SDS011;1866;48.374;10.766;2023-02-28T13:11:57;101.90;;;9.30;;
3700;SDS011;1866;48.374;10.766;2023-02-28T13:14:27;106.17;;;9.20;;
3700;SDS011;1866;48.374;10.766;2023-02-28T13:16:59;103.35;;;9.30;;
3700;SDS011;1866;48.374;10.766;2023-02-28T13:19:29;101.88;;;9.60;;
3700;SDS011;1866;48.374;10.766;2023-02-28T13:21:58;107.57;;;9.63;;
3700;SDS011;1866;48.374;10.766;2023-02-28T13:24:43;104.90;;;9.50;;
3700;SDS011;1866;48.374;10.766;2023-02-28T13:30:01;104.38;;;8.68;;
3700;SDS011;1866;48.374;10.766;2023-02-28T13:35:48;103.18;;;9.30;;
3700;SDS011;1866;48.374;10.766;2023-02-28T13:38:39;103.70;;;8.43;;
3700;SDS011;1866;48.374;10.766;2023-02-28T13:44:12;101.35;;;8.85;;
3700;SDS011;1866;48.374;10.766;2023-02-28T13:52:48;106.88;;;9.48;;
3700;SDS011;1866;48.374;10.766;2023-02-28T13:55:35;103.63;;;8.73;;
3700;SDS011;1866;48.374;10.766;2023-02-28T13:58:10;107.80;;;9.52;;
3700;SDS011;1866;48.374;10.766;2023-02-28T14:03:41;105.88;;;10.20;;
3700;SDS011;1866;48.374;10.766;2023-02-28T14:06:23;99.35;;;8.50;;
3700;SDS011;1866;48.374;10.766;2023-02-28T14:08:54;102.05;;;9.27;;
3700;SDS011;1866;48.374;10.766;2023-02-28T14:11:29;105.10;;;9.32;;
3700;SDS011;1866;48.374;10.766;2023-02-28T14:13:58;101.22;;;9.18;;
3700;SDS011;1866;48.374;10.766;2023-02-28T14:16:26;105.45;;;9.48;;
3700;SDS011;1866;48.374;10.766;2023-02-28T14:19:01;101.68;;;8.98;;
3700;SDS011;1866;48.374;10.766;2023-02-28T14:21:38;104.95;;;10.07;;
3700;SDS011;1866;48.374;10.766;2023-02-28T14:27:20;104.55;;;10.18;;
3700;SDS011;1866;48.374;10.766;2023-02-28T14:30:10;104.13;;;9.50;;
3700;SDS011;1866;48.374;10.766;2023-02-28T14:32:47;102.67;;;8.60;;
3700;SDS011;1866;48.374;10.766;2023-02-28T14:35:22;103.25;;;9.55;;
3700;SDS011;1866;48.374;10.766;2023-02-28T14:38:08;103.72;;;8.52;;
3700;SDS011;1866;48.374;10.766;2023-02-28T14:40:43;101.00;;;8.40;;
3700;SDS011;1866;48.374;10.766;2023-02-28T14:43:18;102.10;;;8.87;;
3700;SDS011;1866;48.374;10.766;2023-02-28T14:45:49;101.20;;;8.27;;
3700;SDS011;1866;48.374;10.766;2023-02-28T14:48:17;100.75;;;8.57;;
3700;SDS011;1866;48.374;10.766;2023-02-28T14:50:47;101.50;;;8.80;;
3700;SDS011;1866;48.374;10.766;2023-02-28T14:53:18;100.95;;;8.90;;
3700;SDS011;1866;48.374;10.766;2023-02-28T14:55:48;102.30;;;8.90;;
3700;SDS011;1866;48.374;10.766;2023-02-28T14:58:21;102.70;;;8.47;;
3700;SDS011;1866;48.374;10.766;2023-02-28T15:00:50;101.80;;;8.87;;
3700;SDS011;1866;48.374;10.766;2023-02-28T15:03:19;102.35;;;8.77;;
3700;SDS011;1866;48.374;10.766;2023-02-28T15:05:51;101.70;;;8.67;;
3700;SDS011;1866;48.374;10.766;2023-02-28T15:08:20;98.67;;;8.47;;
3700;SDS011;1866;48.374;10.766;2023-02-28T15:10:51;100.10;;;8.30;;
3700;SDS011;1866;48.374;10.766;2023-02-28T15:13:21;102.97;;;8.83;;
3700;SDS011;1866;48.374;10.766;2023-02-28T15:15:50;100.60;;;8.65;;
3700;SDS011;1866;48.374;10.766;2023-02-28T15:18:28;102.63;;;8.63;;
3700;SDS011;1866;48.374;10.766;2023-02-28T15:20:59;100.63;;;8.77;;
3700;SDS011;1866;48.374;10.766;2023-02-28T15:23:31;106.70;;;9.48;;
3700;SDS011;1866;48.374;10.766;2023-02-28T15:26:00;103.47;;;9.25;;
3700;SDS011;1866;48.374;10.766;2023-02-28T15:28:27;103.78;;;9.07;;
3700;SDS011;1866;48.374;10.766;2023-02-28T15:30:56;102.47;;;8.90;;
3700;SDS011;1866;48.374;10.766;2023-02-28T15:33:24;103.15;;;8.90;;
3700;SDS011;1866;48.374;10.766;2023-02-28T15:36:03;105.20;;;9.18;;